Time;durP1;ratioP1;P1;durP2;ratioP2;P2;SDS_P1;SDS_P2;PMS_P1;PMS_P2;Temp;Humidity;BMP_temperature;BMP_pressure;BME280_temperature;BME280_humidity;BME280_pressure;Samples;Min_cycle;Max_cycle;Signal;HPM_P1;HPM_P2
2023/01/27 00:02:15;;;;;;;2.78;1.02;;;7.40;76.80;;;;;;5073793;28;20040;-68
2023/01/27 00:04:40;;;;;;;2.10;0.95;;;7.40;76.70;;;;;;5101592;28;20481;-67
2023/01/27 00:07:06;;;;;;;4.10;1.55;;;7.40;76.70;;;;;;5099958;28;20019;-67
2023/01/27 00:09:32;;;;;;;0.95;0.70;;;7.40;76.70;;;;;;5098373;28;20028;-61
2023/01/27 00:14:42;;;;;;;3.38;1.05;;;7.50;76.60;;;;;;5103514;28;20059;-67
2023/01/27 00:17:07;;;;;;;1.58;0.98;;;7.50;76.50;;;;;;5109517;28;20742;-60
2023/01/27 00:19:33;;;;;;;2.90;1.48;;;7.50;76.50;;;;;;5109368;28;20458;-61
2023/01/27 00:24:43;;;;;;;1.77;1.33;;;7.40;76.50;;;;;;5107531;28;20440;-60
2023/01/27 00:27:08;;;;;;;1.80;1.08;;;7.40;76.60;;;;;;5092029;28;20119;-61
2023/01/27 00:29:39;;;;;;;1.95;0.98;;;7.40;76.60;;;;;;5106134;28;20075;-61
2023/01/27 00:34:49;;;;;;;1.80;1.00;;;7.40;76.60;;;;;;5083495;28;20096;-61
2023/01/27 00:37:15;;;;;;;3.67;1.33;;;7.40;76.50;;;;;;5107525;28;20406;-60
2023/01/27 00:39:41;;;;;;;4.18;1.42;;;7.40;76.40;;;;;;5102560;28;20035;-60
2023/01/27 00:42:07;;;;;;;2.03;1.35;;;7.30;76.40;;;;;;5103560;28;20028;-61
2023/01/27 00:44:33;;;;;;;3.65;1.15;;;7.30;76.40;;;;;;5106939;28;20027;-61
2023/01/27 00:46:59;;;;;;;2.10;1.00;;;7.30;76.50;;;;;;5108809;28;20050;-60
2023/01/27 00:49:24;;;;;;;2.80;1.30;;;7.30;76.40;;;;;;5109050;28;20028;-60
2023/01/27 00:51:50;;;;;;;3.47;1.58;;;7.30;76.40;;;;;;5103385;28;20036;-60
2023/01/27 00:54:16;;;;;;;2.97;1.48;;;7.30;76.50;;;;;;5103979;28;20031;-61
2023/01/27 00:56:42;;;;;;;4.55;1.70;;;7.30;76.50;;;;;;5109377;28;20104;-60
2023/01/27 00:59:08;;;;;;;3.05;1.75;;;7.20;76.60;;;;;;5109296;28;20043;-60
2023/01/27 01:01:34;;;;;;;3.05;1.25;;;7.20;76.60;;;;;;5093655;28;20031;-60
2023/01/27 01:03:59;;;;;;;3.42;1.35;;;7.20;76.60;;;;;;5093031;28;20028;-59
2023/01/27 01:06:26;;;;;;;2.10;1.23;;;7.10;76.70;;;;;;5096902;28;20043;-66
2023/01/27 01:08:52;;;;;;;2.55;1.35;;;7.20;76.70;;;;;;5108154;28;20813;-67
2023/01/27 01:11:19;;;;;;;7.38;1.23;;;7.10;76.70;;;;;;5104719;28;20036;-67
2023/01/27 01:13:46;;;;;;;3.10;1.65;;;7.20;76.70;;;;;;5093351;28;20028;-67
2023/01/27 01:16:21;;;;;;;5.25;1.95;;;7.20;76.50;;;;;;5089972;28;20028;-67
2023/01/27 01:18:47;;;;;;;1.13;1.02;;;7.20;76.40;;;;;;5091395;28;20036;-67
2023/01/27 01:21:13;;;;;;;4.28;0.88;;;7.20;76.40;;;;;;5090991;28;20024;-61
2023/01/27 01:23:41;;;;;;;4.05;1.75;;;7.20;76.50;;;;;;5094356;28;20031;-60
2023/01/27 01:26:09;;;;;;;2.13;1.13;;;7.20;76.40;;;;;;5095795;28;20077;-67
2023/01/27 01:28:35;;;;;;;2.42;1.00;;;7.10;76.40;;;;;;5082308;28;20021;-67
2023/01/27 01:31:11;;;;;;;1.77;1.33;;;7.10;76.40;;;;;;5092331;28;20534;-67
2023/01/27 01:33:37;;;;;;;3.78;1.23;;;7.10;76.50;;;;;;5068041;28;20037;-67
2023/01/27 01:36:08;;;;;;;6.03;1.25;;;7.10;76.50;;;;;;5087858;28;20439;-67
2023/01/27 01:38:34;;;;;;;3.75;1.75;;;7.10;76.40;;;;;;5088530;28;20032;-67
2023/01/27 01:40:59;;;;;;;2.08;1.67;;;7.10;76.40;;;;;;5095453;28;20056;-68
2023/01/27 01:43:26;;;;;;;1.83;1.40;;;7.10;76.50;;;;;;5099238;28;20045;-68
2023/01/27 01:45:59;;;;;;;2.13;1.70;;;7.00;76.50;;;;;;5071021;28;20475;-68
2023/01/27 01:48:35;;;;;;;2.65;1.60;;;7.00;76.50;;;;;;5095793;28;20503;-61
2023/01/27 01:51:19;;;;;;;2.35;1.65;;;7.00;76.60;;;;;;5078838;28;20379;-61
2023/01/27 01:53:57;;;;;;;2.15;1.48;;;7.00;76.50;;;;;;5094491;28;20436;-61
2023/01/27 01:56:52;;;;;;;7.45;2.08;;;7.00;76.50;;;;;;5090511;28;20052;-61
2023/01/27 01:59:45;;;;;;;3.00;1.08;;;7.00;76.50;;;;;;5092078;28;20016;-61
2023/01/27 02:02:16;;;;;;;4.13;1.88;;;7.00;76.60;;;;;;5075771;28;20047;-61
2023/01/27 02:04:55;;;;;;;3.47;1.25;;;7.00;76.70;;;;;;5103386;28;20179;-62
2023/01/27 02:07:28;;;;;;;2.95;1.90;;;7.00;76.60;;;;;;5087351;28;20031;-67
2023/01/27 02:09:55;;;;;;;3.83;1.40;;;7.00;76.70;;;;;;5106036;28;20024;-67
2023/01/27 02:12:21;;;;;;;2.47;1.65;;;7.10;76.70;;;;;;5105107;28;20059;-67
2023/01/27 02:14:47;;;;;;;2.25;1.48;;;7.00;76.70;;;;;;5104983;28;20082;-67
2023/01/27 02:17:13;;;;;;;3.28;1.92;;;7.10;76.70;;;;;;5098587;28;20040;-61
2023/01/27 02:19:48;;;;;;;2.30;1.63;;;7.00;76.70;;;;;;5104817;28;20032;-61
2023/01/27 02:22:32;;;;;;;5.20;1.60;;;7.10;76.80;;;;;;5098735;28;20076;-67
2023/01/27 02:25:09;;;;;;;3.88;2.33;;;7.10;76.80;;;;;;5082388;28;20040;-67
2023/01/27 02:27:35;;;;;;;3.42;2.13;;;7.00;76.90;;;;;;5095244;27;20438;-67
2023/01/27 02:30:01;;;;;;;7.43;2.47;;;7.00;77.00;;;;;;5097124;28;20068;-67
2023/01/27 02:32:26;;;;;;;3.15;2.25;;;7.00;76.90;;;;;;5096216;28;20398;-68
2023/01/27 02:34:55;;;;;;;3.53;2.35;;;7.00;77.10;;;;;;5106117;28;20085;-68
2023/01/27 02:37:22;;;;;;;2.35;1.80;;;7.00;77.10;;;;;;5107596;28;20077;-68
2023/01/27 02:39:51;;;;;;;10.32;3.10;;;7.00;77.20;;;;;;5097972;28;20474;-68
2023/01/27 02:42:18;;;;;;;5.90;2.45;;;7.00;77.20;;;;;;5094016;28;20400;-68
2023/01/27 02:44:43;;;;;;;5.35;2.88;;;7.00;77.40;;;;;;5093586;28;20051;-61
2023/01/27 02:47:09;;;;;;;6.50;2.80;;;7.00;77.40;;;;;;5108249;28;20415;-61
2023/01/27 02:49:35;;;;;;;5.93;3.03;;;6.90;77.50;;;;;;5110163;28;20658;-61
2023/01/27 02:52:00;;;;;;;5.57;2.90;;;6.90;77.60;;;;;;5089965;28;20110;-61
2023/01/27 02:54:28;;;;;;;4.88;2.28;;;6.90;77.60;;;;;;5094037;28;20039;-61
2023/01/27 02:56:53;;;;;;;5.40;3.22;;;6.80;77.60;;;;;;5094854;28;20039;-61
2023/01/27 02:59:19;;;;;;;5.40;3.15;;;6.90;77.80;;;;;;5089061;28;20033;-61
2023/01/27 03:01:45;;;;;;;3.85;2.22;;;6.80;77.80;;;;;;5096735;28;20035;-61
2023/01/27 03:04:10;;;;;;;5.25;2.85;;;6.80;77.80;;;;;;5106266;28;20039;-68
2023/01/27 03:06:37;;;;;;;5.15;3.35;;;6.80;77.90;;;;;;5102423;28;20099;-68
2023/01/27 03:09:04;;;;;;;5.55;3.17;;;6.80;77.90;;;;;;5092434;28;20051;-68
2023/01/27 03:14:14;;;;;;;4.45;2.83;;;6.80;78.00;;;;;;5092036;28;20043;-67
2023/01/27 03:19:25;;;;;;;4.60;2.38;;;6.90;77.90;;;;;;5096717;28;20078;-67
2023/01/27 03:21:52;;;;;;;4.45;3.50;;;6.90;77.90;;;;;;5092817;28;20039;-67
2023/01/27 03:24:18;;;;;;;6.28;3.55;;;6.90;77.90;;;;;;5087993;28;20032;-67
2023/01/27 03:26:44;;;;;;;5.40;3.10;;;6.80;77.90;;;;;;5093048;28;20488;-67
2023/01/27 03:31:54;;;;;;;6.70;2.85;;;6.70;78.10;;;;;;5078351;28;20066;-67
2023/01/27 03:34:20;;;;;;;6.65;3.35;;;6.70;78.20;;;;;;5081863;28;20032;-61
2023/01/27 03:47:42;;;;;;;2.50;2.25;;;6.60;78.00;;;;;;5084536;28;20161;-61
2023/01/27 03:50:09;;;;;;;3.45;2.03;;;6.60;77.90;;;;;;5086939;28;20067;-61
2023/01/27 03:52:36;;;;;;;2.88;2.22;;;6.70;77.90;;;;;;5073408;28;20024;-61
2023/01/27 03:55:03;;;;;;;4.85;2.80;;;6.70;77.90;;;;;;5097280;28;20042;-61
2023/01/27 03:57:28;;;;;;;3.80;2.67;;;6.70;77.70;;;;;;5097832;28;20032;-67
2023/01/27 03:59:54;;;;;;;3.42;1.90;;;6.70;77.70;;;;;;5101153;28;20514;-67
2023/01/27 04:07:48;;;;;;;4.10;2.13;;;6.70;77.50;;;;;;5106442;28;20159;-67
2023/01/27 04:10:14;;;;;;;3.97;2.20;;;6.80;77.40;;;;;;5104514;28;20521;-61
2023/01/27 04:12:40;;;;;;;2.20;1.70;;;6.80;77.30;;;;;;5099490;28;20474;-61
2023/01/27 04:15:06;;;;;;;2.47;2.13;;;6.80;77.20;;;;;;5106188;28;20056;-67
2023/01/27 04:17:37;;;;;;;3.03;1.85;;;6.80;76.60;;;;;;5083124;28;20028;-68
2023/01/27 04:20:04;;;;;;;5.43;1.65;;;6.80;77.10;;;;;;5101397;28;20544;-61
2023/01/27 04:22:29;;;;;;;2.83;1.67;;;6.80;77.00;;;;;;5091352;28;20081;-61
2023/01/27 04:24:55;;;;;;;3.00;1.90;;;6.90;77.00;;;;;;5100689;28;20502;-67
2023/01/27 04:27:21;;;;;;;3.13;2.03;;;6.90;77.00;;;;;;5101851;28;20028;-67
2023/01/27 04:29:46;;;;;;;2.72;1.75;;;6.90;76.90;;;;;;5096060;28;20522;-67
2023/01/27 04:32:13;;;;;;;4.72;2.03;;;6.80;76.90;;;;;;5102451;28;20062;-61
2023/01/27 04:34:39;;;;;;;1.67;1.52;;;6.90;76.90;;;;;;5091522;28;20399;-67
2023/01/27 04:37:07;;;;;;;2.40;1.63;;;6.80;76.90;;;;;;5086007;28;20459;-61
2023/01/27 04:39:33;;;;;;;2.28;1.80;;;6.80;76.90;;;;;;5090087;28;20092;-68
2023/01/27 04:41:59;;;;;;;2.70;2.15;;;6.80;77.00;;;;;;5107339;28;20114;-61
2023/01/27 04:44:25;;;;;;;2.70;1.77;;;6.80;77.00;;;;;;5105430;28;20106;-67
2023/01/27 04:46:51;;;;;;;3.15;1.55;;;6.80;77.00;;;;;;5097799;28;20493;-67
2023/01/27 04:49:17;;;;;;;2.72;1.65;;;6.80;77.00;;;;;;5097388;28;20028;-67
2023/01/27 04:51:44;;;;;;;3.55;2.08;;;6.80;77.00;;;;;;5082176;28;20075;-60
2023/01/27 04:54:10;;;;;;;1.90;1.33;;;6.90;77.00;;;;;;5110445;28;20426;-60
2023/01/27 04:56:41;;;;;;;2.05;1.45;;;6.90;76.90;;;;;;5092769;28;20071;-60
2023/01/27 04:59:10;;;;;;;2.53;1.60;;;6.90;76.80;;;;;;5082802;28;20020;-68
2023/01/27 05:01:36;;;;;;;3.40;1.73;;;6.90;76.90;;;;;;5089121;28;20139;-67
2023/01/27 05:04:02;;;;;;;1.98;1.55;;;6.90;76.90;;;;;;5098725;28;20099;-67
2023/01/27 05:06:28;;;;;;;1.95;1.30;;;6.90;76.90;;;;;;5103898;28;20474;-66
2023/01/27 05:08:54;;;;;;;1.75;1.35;;;6.90;76.90;;;;;;5104948;28;20029;-67
2023/01/27 05:11:20;;;;;;;3.20;1.83;;;6.90;76.90;;;;;;5094654;28;20030;-60
2023/01/27 05:13:46;;;;;;;1.88;1.15;;;6.90;76.80;;;;;;5095451;28;20467;-60
2023/01/27 05:16:19;;;;;;;2.03;1.23;;;6.90;76.70;;;;;;5091719;28;20096;-60
2023/01/27 05:18:47;;;;;;;1.55;1.20;;;6.90;76.70;;;;;;5100520;28;20028;-61
2023/01/27 05:21:15;;;;;;;1.55;1.15;;;6.90;76.70;;;;;;5106375;28;20016;-61
2023/01/27 05:23:41;;;;;;;4.38;1.85;;;6.90;76.60;;;;;;5091059;28;20387;-61
2023/01/27 05:26:19;;;;;;;2.17;1.23;;;6.90;76.60;;;;;;5091693;28;20386;-61
2023/01/27 05:28:47;;;;;;;4.82;1.50;;;6.90;76.60;;;;;;5082946;28;20030;-61
2023/01/27 05:31:19;;;;;;;0.98;0.82;;;6.90;76.40;;;;;;5088045;28;20052;-62
2023/01/27 05:33:48;;;;;;;1.63;1.13;;;6.90;76.40;;;;;;5049480;28;20032;-61
2023/01/27 05:36:16;;;;;;;1.17;1.00;;;7.00;76.40;;;;;;5091346;28;20027;-62
2023/01/27 05:38:42;;;;;;;3.72;1.15;;;7.00;76.30;;;;;;5096927;28;20110;-68
2023/01/27 05:41:10;;;;;;;1.27;1.17;;;7.00;76.10;;;;;;5093461;28;20136;-67
2023/01/27 05:43:37;;;;;;;1.35;1.02;;;7.00;76.10;;;;;;5072524;28;20375;-67
2023/01/27 05:46:09;;;;;;;2.35;1.52;;;7.00;76.20;;;;;;5091717;28;20028;-67
2023/01/27 05:48:37;;;;;;;2.13;1.50;;;7.00;76.10;;;;;;5094673;28;20468;-67
2023/01/27 05:51:03;;;;;;;1.80;1.05;;;7.00;76.20;;;;;;5097659;28;20028;-67
2023/01/27 05:53:29;;;;;;;2.28;1.65;;;7.00;76.10;;;;;;5100486;28;20558;-67
2023/01/27 05:55:55;;;;;;;1.70;1.00;;;7.00;76.10;;;;;;5101394;28;20028;-66
2023/01/27 05:58:21;;;;;;;1.35;1.17;;;7.00;76.10;;;;;;5082480;28;20028;-67
2023/01/27 06:00:47;;;;;;;1.45;0.77;;;7.00;75.90;;;;;;5097998;28;20065;-68
2023/01/27 06:03:13;;;;;;;1.70;1.15;;;7.00;76.00;;;;;;5095699;28;20379;-68
2023/01/27 06:05:47;;;;;;;1.58;1.23;;;7.00;76.00;;;;;;5100002;28;20020;-68
2023/01/27 06:08:13;;;;;;;1.65;1.55;;;7.00;76.00;;;;;;5112263;28;20032;-68
2023/01/27 06:10:38;;;;;;;2.22;1.30;;;6.90;76.00;;;;;;5110911;28;20024;-67
2023/01/27 06:13:04;;;;;;;1.45;1.02;;;6.90;76.10;;;;;;5108690;28;20034;-68
2023/01/27 06:15:30;;;;;;;1.50;1.15;;;6.90;76.20;;;;;;5106766;28;20031;-61
2023/01/27 06:17:56;;;;;;;1.50;1.00;;;6.90;76.20;;;;;;5099674;28;20039;-61
2023/01/27 06:20:21;;;;;;;2.85;1.38;;;6.90;76.10;;;;;;5077806;28;20057;-62
2023/01/27 06:22:49;;;;;;;0.77;0.77;;;6.90;76.10;;;;;;5097938;28;20118;-61
2023/01/27 06:25:15;;;;;;;2.15;1.13;;;6.90;76.10;;;;;;5102020;28;20032;-61
2023/01/27 06:27:40;;;;;;;1.63;1.33;;;6.90;76.10;;;;;;5087368;28;20468;-62
2023/01/27 06:30:08;;;;;;;1.88;1.23;;;6.90;76.10;;;;;;5097731;28;20087;-61
2023/01/27 06:32:36;;;;;;;1.83;1.40;;;6.90;76.00;;;;;;5096630;28;20059;-62
2023/01/27 06:35:02;;;;;;;1.25;1.15;;;6.90;76.00;;;;;;5100342;28;20505;-61
2023/01/27 06:37:29;;;;;;;2.83;1.42;;;6.80;76.10;;;;;;5098645;28;20055;-61
2023/01/27 06:39:54;;;;;;;5.28;1.60;;;6.80;76.10;;;;;;5098688;28;20039;-61
2023/01/27 06:42:20;;;;;;;1.73;1.08;;;6.80;76.20;;;;;;5088764;28;20023;-61
2023/01/27 06:44:45;;;;;;;1.13;0.80;;;6.70;76.20;;;;;;5096112;28;20058;-61
2023/01/27 06:47:11;;;;;;;1.13;1.02;;;6.70;76.20;;;;;;5094678;28;20028;-62
2023/01/27 06:49:37;;;;;;;1.05;0.65;;;6.80;76.30;;;;;;5073553;28;20059;-62
2023/01/27 06:52:02;;;;;;;1.58;1.05;;;6.80;76.20;;;;;;5094283;28;20026;-60
2023/01/27 06:54:28;;;;;;;0.73;0.73;;;6.80;76.10;;;;;;5093137;28;20035;-61
2023/01/27 06:56:54;;;;;;;2.50;0.90;;;6.80;76.20;;;;;;5093234;28;20151;-62
2023/01/27 06:59:19;;;;;;;2.00;1.15;;;6.80;76.20;;;;;;5092896;28;20078;-63
2023/01/27 07:01:45;;;;;;;1.42;0.82;;;6.80;76.10;;;;;;5072405;28;20043;-63
2023/01/27 07:04:11;;;;;;;0.80;0.80;;;6.80;76.10;;;;;;5080209;28;20032;-63
2023/01/27 07:06:36;;;;;;;0.60;0.60;;;6.70;76.00;;;;;;5101470;28;20034;-62
2023/01/27 07:09:02;;;;;;;1.75;1.15;;;6.60;76.00;;;;;;5101963;28;20077;-62
2023/01/27 07:11:28;;;;;;;1.40;1.13;;;6.50;76.10;;;;;;5076517;28;20028;-63
2023/01/27 07:13:54;;;;;;;0.82;0.65;;;6.40;76.30;;;;;;5069672;28;20103;-63
2023/01/27 07:16:20;;;;;;;1.10;0.88;;;6.40;76.40;;;;;;5087449;28;20031;-64
2023/01/27 07:18:45;;;;;;;0.57;0.57;;;6.30;76.40;;;;;;5109096;28;20024;-63
2023/01/27 07:21:11;;;;;;;1.00;0.68;;;6.30;76.50;;;;;;5100290;28;20132;-64
2023/01/27 07:23:37;;;;;;;1.45;1.15;;;6.20;76.50;;;;;;5091323;28;20111;-64
2023/01/27 07:26:03;;;;;;;0.70;0.70;;;6.20;76.60;;;;;;5099055;28;20051;-64
2023/01/27 07:28:28;;;;;;;2.55;1.10;;;6.20;76.60;;;;;;5085040;28;20236;-64
2023/01/27 07:30:54;;;;;;;1.48;0.88;;;6.10;76.50;;;;;;5083612;28;20040;-62
2023/01/27 07:33:20;;;;;;;5.32;1.30;;;6.10;76.50;;;;;;5103319;28;20095;-64
2023/01/27 07:35:48;;;;;;;1.27;0.85;;;6.10;76.40;;;;;;5099154;28;20055;-63
2023/01/27 07:38:14;;;;;;;2.25;1.20;;;6.10;76.50;;;;;;5109777;28;20474;-64
2023/01/27 07:40:40;;;;;;;0.82;0.80;;;6.10;76.50;;;;;;5088485;28;20077;-62
2023/01/27 07:43:06;;;;;;;1.02;0.70;;;6.10;76.50;;;;;;5109035;28;20036;-64
2023/01/27 07:45:32;;;;;;;6.13;1.00;;;6.20;76.60;;;;;;5093859;28;20024;-65
2023/01/27 07:48:06;;;;;;;1.35;1.15;;;6.20;76.40;;;;;;5096790;28;20032;-64
2023/01/27 07:50:32;;;;;;;1.60;0.90;;;6.20;76.40;;;;;;5093871;28;20031;-63
2023/01/27 07:53:00;;;;;;;2.20;0.63;;;6.20;76.30;;;;;;5075101;28;20487;-62
2023/01/27 07:55:26;;;;;;;1.70;1.10;;;6.20;76.40;;;;;;5099992;28;20153;-63
2023/01/27 07:57:53;;;;;;;1.42;1.08;;;6.20;76.40;;;;;;5087151;28;20517;-63
2023/01/27 08:00:20;;;;;;;1.75;1.02;;;6.30;76.40;;;;;;5076356;28;20028;-63
2023/01/27 08:02:50;;;;;;;0.80;0.68;;;6.30;76.50;;;;;;5089228;28;20368;-62
2023/01/27 08:05:16;;;;;;;0.60;0.50;;;6.30;76.40;;;;;;5080303;28;20547;-63
2023/01/27 08:07:42;;;;;;;0.70;0.70;;;6.40;76.40;;;;;;5086890;28;20036;-62
2023/01/27 08:10:09;;;;;;;0.65;0.65;;;6.40;76.30;;;;;;5069983;28;20028;-61
2023/01/27 08:12:34;;;;;;;0.85;0.80;;;6.40;76.30;;;;;;5084812;28;20514;-61
2023/01/27 08:15:00;;;;;;;0.90;0.77;;;6.40;76.20;;;;;;5087756;28;20028;-61
2023/01/27 08:17:26;;;;;;;1.65;0.77;;;6.50;76.20;;;;;;5086929;28;20177;-61
2023/01/27 08:19:51;;;;;;;0.60;0.50;;;6.50;76.20;;;;;;5088833;28;20031;-61
2023/01/27 08:22:20;;;;;;;1.88;1.05;;;6.50;76.10;;;;;;5064010;28;20505;-61
2023/01/27 08:24:47;;;;;;;1.58;0.88;;;6.50;76.20;;;;;;5089205;28;20044;-61
2023/01/27 08:27:13;;;;;;;0.70;0.70;;;6.50;76.10;;;;;;5085397;28;20033;-61
2023/01/27 08:29:39;;;;;;;0.47;0.47;;;6.50;76.00;;;;;;5095896;28;20093;-61
2023/01/27 08:32:05;;;;;;;0.57;0.57;;;6.50;75.90;;;;;;5090685;28;20040;-61
2023/01/27 08:34:32;;;;;;;1.13;0.80;;;6.50;76.00;;;;;;5093853;28;20024;-61
2023/01/27 08:37:00;;;;;;;1.25;0.82;;;6.50;76.10;;;;;;5081338;28;20020;-66
2023/01/27 08:39:26;;;;;;;0.98;0.75;;;6.60;76.00;;;;;;5098792;28;20035;-66
2023/01/27 08:41:51;;;;;;;0.60;0.50;;;6.50;75.90;;;;;;5078243;28;20076;-70
2023/01/27 08:44:17;;;;;;;0.60;0.60;;;6.60;76.00;;;;;;5104232;28;20031;-72
2023/01/27 08:46:43;;;;;;;0.70;0.65;;;6.50;75.90;;;;;;5074358;28;20039;-71
2023/01/27 08:49:08;;;;;;;1.52;0.70;;;6.50;76.00;;;;;;5103754;28;20387;-64
2023/01/27 08:51:34;;;;;;;0.57;0.57;;;6.50;76.00;;;;;;5078360;28;20031;-64
2023/01/27 08:54:00;;;;;;;0.85;0.77;;;6.60;76.00;;;;;;5103547;28;20023;-63
2023/01/27 08:56:26;;;;;;;0.77;0.77;;;6.60;76.00;;;;;;5089375;28;20433;-64
2023/01/27 08:58:52;;;;;;;0.60;0.60;;;6.60;75.90;;;;;;5085928;28;20024;-63
2023/01/27 09:01:19;;;;;;;1.98;0.90;;;6.60;75.90;;;;;;5094692;28;20386;-63
2023/01/27 09:03:45;;;;;;;0.95;0.85;;;6.60;75.90;;;;;;5089617;28;20032;-62
2023/01/27 09:06:12;;;;;;;0.52;0.50;;;6.60;75.90;;;;;;5097652;28;20030;-63
2023/01/27 09:08:39;;;;;;;0.82;0.55;;;6.70;75.80;;;;;;5098073;28;20600;-62
2023/01/27 09:11:13;;;;;;;2.33;0.70;;;6.70;75.70;;;;;;5097440;28;20109;-67
2023/01/27 09:13:39;;;;;;;1.05;0.80;;;6.70;75.70;;;;;;5069935;28;20395;-67
2023/01/27 09:16:05;;;;;;;1.02;0.88;;;6.70;75.70;;;;;;5088086;28;20032;-67
2023/01/27 09:18:31;;;;;;;2.40;0.85;;;6.70;75.60;;;;;;5074315;28;20039;-68
2023/01/27 09:20:56;;;;;;;0.82;0.77;;;6.70;75.50;;;;;;5092177;28;20028;-67
2023/01/27 09:23:22;;;;;;;1.23;0.88;;;6.70;75.70;;;;;;5072406;28;20029;-67
2023/01/27 09:25:48;;;;;;;2.13;1.05;;;6.60;75.80;;;;;;5071707;28;20035;-67
2023/01/27 09:28:17;;;;;;;1.38;0.60;;;6.60;75.90;;;;;;5084935;28;20028;-66
2023/01/27 09:30:47;;;;;;;0.68;0.68;;;6.60;76.00;;;;;;5088994;28;20119;-67
2023/01/27 09:33:13;;;;;;;0.60;0.60;;;6.60;75.90;;;;;;5092688;28;20062;-67
2023/01/27 09:35:51;;;;;;;0.68;0.50;;;6.60;75.90;;;;;;5084666;28;20032;-67
2023/01/27 09:38:19;;;;;;;1.63;1.27;;;6.60;76.00;;;;;;5081286;28;20028;-66
2023/01/27 09:41:07;;;;;;;2.17;1.13;;;6.50;76.00;;;;;;5084062;28;20067;-67
2023/01/27 09:43:45;;;;;;;0.73;0.65;;;6.60;76.00;;;;;;5078030;28;20494;-66
2023/01/27 09:46:32;;;;;;;0.63;0.63;;;6.60;76.00;;;;;;5083832;28;20107;-67
2023/01/27 09:49:18;;;;;;;1.98;1.10;;;6.70;75.90;;;;;;5080915;28;20031;-66
2023/01/27 09:51:59;;;;;;;1.05;0.70;;;6.70;75.80;;;;;;5075373;28;20035;-68
2023/01/27 09:55:03;;;;;;;2.10;0.70;;;6.70;75.70;;;;;;5084929;28;20248;-66
2023/01/27 09:57:56;;;;;;;0.70;0.70;;;6.70;75.80;;;;;;5043132;28;20040;-62
2023/01/27 10:00:52;;;;;;;1.33;1.02;;;6.70;75.70;;;;;;5087723;28;20039;-66
2023/01/27 10:03:26;;;;;;;3.35;0.95;;;6.70;75.70;;;;;;5088708;28;20483;-66
2023/01/27 10:06:04;;;;;;;0.88;0.60;;;6.70;75.80;;;;;;5083858;28;20046;-61
2023/01/27 10:08:56;;;;;;;1.90;1.00;;;6.80;75.70;;;;;;5090338;28;20024;-66
2023/01/27 10:11:49;;;;;;;2.97;1.13;;;6.80;75.80;;;;;;5050299;28;20037;-62
2023/01/27 10:14:22;;;;;;;1.27;1.17;;;6.80;75.70;;;;;;5085204;28;20020;-61
2023/01/27 10:17:05;;;;;;;1.20;0.73;;;6.80;75.80;;;;;;5086103;28;20024;-61
2023/01/27 10:19:59;;;;;;;1.08;0.98;;;6.90;75.80;;;;;;5085566;28;20031;-62
2023/01/27 10:22:40;;;;;;;1.35;0.80;;;6.90;75.70;;;;;;5086886;28;20118;-61
2023/01/27 10:25:22;;;;;;;1.67;1.52;;;6.90;75.60;;;;;;5079755;28;20024;-62
2023/01/27 10:27:52;;;;;;;;;;;6.90;75.60;;;;;;5083757;28;20019;-61
2023/01/27 10:30:33;;;;;;;0.80;0.80;;;6.90;75.70;;;;;;5089678;28;19916;-62
2023/01/27 10:33:19;;;;;;;1.63;1.10;;;6.90;75.70;;;;;;5091928;28;20514;-62
2023/01/27 10:35:57;;;;;;;1.08;0.90;;;6.90;75.60;;;;;;5075876;28;20080;-61
2023/01/27 10:38:42;;;;;;;0.85;0.85;;;6.90;75.60;;;;;;5092574;28;20032;-61
2023/01/27 10:41:32;;;;;;;1.42;1.10;;;7.00;75.60;;;;;;5092347;28;20031;-61
2023/01/27 10:44:10;;;;;;;4.15;1.38;;;7.00;75.50;;;;;;5094153;28;20048;-61
2023/01/27 10:47:08;;;;;;;0.88;0.88;;;7.00;75.60;;;;;;5092847;28;20475;-61
2023/01/27 10:49:45;;;;;;;0.80;0.80;;;7.00;75.40;;;;;;5065609;28;20498;-62
2023/01/27 10:52:33;;;;;;;2.40;1.02;;;7.00;75.30;;;;;;5094473;28;20031;-61
2023/01/27 10:55:24;;;;;;;0.73;0.73;;;7.10;75.40;;;;;;5094583;28;20698;-67
2023/01/27 10:57:58;;;;;;;0.63;0.63;;;7.10;75.30;;;;;;5085729;28;20048;-66
2023/01/27 11:00:53;;;;;;;1.48;1.10;;;7.00;75.20;;;;;;5094444;28;20027;-67
2023/01/27 11:03:50;;;;;;;1.20;0.95;;;7.00;75.30;;;;;;5089350;28;20036;-66
2023/01/27 11:06:30;;;;;;;2.67;0.95;;;7.10;75.40;;;;;;5047700;28;20039;-66
2023/01/27 11:09:07;;;;;;;2.10;1.15;;;7.10;75.30;;;;;;5092364;28;20012;-67
2023/01/27 11:11:43;;;;;;;1.48;0.98;;;7.30;75.00;;;;;;5095629;28;20028;-67
2023/01/27 11:14:34;;;;;;;0.75;0.70;;;7.30;75.00;;;;;;5092917;28;20040;-67
2023/01/27 11:17:18;;;;;;;1.42;0.88;;;7.60;74.70;;;;;;5086676;28;20019;-66
2023/01/27 11:19:53;;;;;;;1.60;0.88;;;7.70;74.40;;;;;;5081121;28;20020;-67
2023/01/27 11:22:39;;;;;;;1.58;0.75;;;7.90;74.00;;;;;;5091450;28;20051;-67
2023/01/27 11:25:22;;;;;;;1.17;0.95;;;8.00;73.80;;;;;;5089457;28;20153;-67
2023/01/27 11:28:02;;;;;;;1.27;1.00;;;8.00;73.40;;;;;;5092385;28;20443;-66
2023/01/27 11:31:16;;;;;;;1.05;0.85;;;8.00;73.50;;;;;;5089441;28;20044;-67
2023/01/27 11:34:02;;;;;;;0.73;0.70;;;8.00;73.40;;;;;;5046457;28;20039;-67
2023/01/27 11:36:28;;;;;;;1.83;0.82;;;7.90;73.50;;;;;;5095109;28;20016;-62
2023/01/27 11:38:57;;;;;;;1.23;1.10;;;7.90;73.70;;;;;;5095249;28;20041;-61
2023/01/27 11:41:24;;;;;;;0.77;0.70;;;7.90;73.30;;;;;;5104698;28;20036;-62
2023/01/27 11:43:50;;;;;;;1.27;0.70;;;7.80;73.20;;;;;;5095756;28;20038;-61
2023/01/27 11:46:26;;;;;;;0.70;0.65;;;7.90;73.30;;;;;;5070597;28;20032;-61
2023/01/27 11:48:56;;;;;;;1.58;0.95;;;7.90;73.30;;;;;;5103786;28;20038;-66
2023/01/27 11:51:31;;;;;;;0.90;0.80;;;7.90;73.40;;;;;;5098617;28;20078;-66
2023/01/27 11:54:06;;;;;;;0.57;0.57;;;8.00;73.40;;;;;;5090400;28;20375;-66
2023/01/27 11:56:34;;;;;;;1.35;0.70;;;8.00;73.30;;;;;;5091459;28;20120;-66
2023/01/27 11:59:09;;;;;;;0.60;0.60;;;8.00;73.20;;;;;;5108788;28;20034;-66
2023/01/27 12:01:45;;;;;;;1.75;1.20;;;8.10;73.10;;;;;;5076104;28;20062;-61
2023/01/27 12:04:17;;;;;;;0.98;0.85;;;8.10;73.00;;;;;;5091878;28;20040;-66
2023/01/27 12:06:58;;;;;;;1.52;0.98;;;8.10;72.90;;;;;;5083897;28;20028;-66
2023/01/27 12:09:30;;;;;;;1.35;0.90;;;8.00;72.70;;;;;;5086229;28;20032;-66
2023/01/27 12:12:13;;;;;;;1.45;0.52;;;8.00;73.00;;;;;;5088451;28;20016;-61
2023/01/27 12:14:47;;;;;;;0.63;0.50;;;8.00;72.90;;;;;;5089325;28;20031;-61
2023/01/27 12:17:28;;;;;;;0.88;0.77;;;8.10;73.00;;;;;;5090885;28;20077;-67
2023/01/27 12:19:58;;;;;;;0.77;0.65;;;8.00;72.80;;;;;;5084800;28;20032;-61
2023/01/27 12:22:30;;;;;;;1.05;0.73;;;8.10;72.90;;;;;;5065460;28;20467;-61
2023/01/27 12:25:07;;;;;;;1.95;0.90;;;8.10;72.90;;;;;;5080374;28;20046;-66
2023/01/27 12:27:46;;;;;;;0.75;0.73;;;8.20;73.20;;;;;;5086927;28;20107;-66
2023/01/27 12:30:24;;;;;;;0.63;0.63;;;8.90;72.50;;;;;;5092674;28;20032;-66
2023/01/27 12:32:51;;;;;;;1.23;1.00;;;9.60;70.50;;;;;;5093189;28;20031;-66
2023/01/27 12:35:32;;;;;;;1.17;0.75;;;9.70;69.40;;;;;;5092761;28;20158;-66
2023/01/27 12:38:13;;;;;;;1.40;1.05;;;9.50;69.50;;;;;;5081198;28;20020;-66
2023/01/27 12:40:43;;;;;;;1.40;0.82;;;9.30;69.90;;;;;;5094610;28;20065;-67
2023/01/27 12:43:15;;;;;;;0.95;0.85;;;9.00;70.30;;;;;;5092050;28;20485;-67
2023/01/27 12:45:42;;;;;;;1.45;1.05;;;8.90;70.70;;;;;;5094198;28;20081;-66
2023/01/27 12:48:08;;;;;;;1.20;0.90;;;8.70;71.00;;;;;;5091907;28;20024;-61
2023/01/27 12:50:41;;;;;;;1.00;0.90;;;8.50;71.20;;;;;;5094162;28;20030;-62
2023/01/27 12:53:18;;;;;;;0.52;0.52;;;8.40;71.50;;;;;;5091665;28;20038;-67
2023/01/27 12:56:05;;;;;;;0.95;0.85;;;8.20;71.70;;;;;;5100799;28;20082;-62
2023/01/27 12:58:40;;;;;;;0.82;0.70;;;8.10;72.00;;;;;;5080800;28;20593;-61
2023/01/27 13:01:20;;;;;;;0.85;0.80;;;8.00;72.20;;;;;;5090472;28;20043;-61
2023/01/27 13:04:15;;;;;;;1.58;1.02;;;8.00;72.30;;;;;;5090886;28;20031;-61
2023/01/27 13:06:50;;;;;;;1.02;0.90;;;8.00;72.30;;;;;;5087961;28;20032;-61
2023/01/27 13:09:25;;;;;;;0.40;0.40;;;7.90;72.50;;;;;;5090768;28;20031;-61
2023/01/27 13:11:52;;;;;;;0.90;0.70;;;7.90;72.40;;;;;;5091335;28;20028;-67
2023/01/27 13:14:18;;;;;;;1.23;0.82;;;7.90;72.50;;;;;;5092188;28;20039;-67
2023/01/27 13:16:57;;;;;;;0.55;0.47;;;7.90;72.40;;;;;;5091804;28;20028;-61
2023/01/27 13:19:48;;;;;;;1.48;0.98;;;7.90;72.40;;;;;;5082271;28;20023;-67
2023/01/27 13:22:17;;;;;;;1.00;0.80;;;7.90;72.50;;;;;;5107365;28;20036;-67
2023/01/27 13:24:49;;;;;;;2.05;0.90;;;7.80;72.40;;;;;;5110019;28;20072;-62
2023/01/27 13:27:19;;;;;;;0.70;0.70;;;7.80;72.40;;;;;;5107042;28;20020;-61
2023/01/27 13:30:09;;;;;;;1.95;0.85;;;7.80;72.40;;;;;;5096285;28;20056;-62
2023/01/27 13:32:36;;;;;;;0.63;0.63;;;7.80;72.40;;;;;;5099803;28;20432;-66
2023/01/27 13:35:20;;;;;;;0.93;0.75;;;7.70;72.50;;;;;;5109506;28;20465;-67
2023/01/27 13:37:58;;;;;;;1.88;1.05;;;7.80;72.50;;;;;;5109611;28;20806;-61
2023/01/27 13:40:40;;;;;;;1.13;1.02;;;7.70;72.40;;;;;;5110245;28;20809;-62
2023/01/27 13:43:15;;;;;;;0.98;0.82;;;7.70;72.50;;;;;;5108704;28;20143;-62
2023/01/27 13:46:21;;;;;;;1.08;0.98;;;7.70;72.50;;;;;;5107368;28;20028;-61
2023/01/27 13:48:52;;;;;;;1.77;1.00;;;7.70;72.60;;;;;;5046049;28;20061;-62
2023/01/27 13:51:24;;;;;;;1.63;0.95;;;7.60;72.50;;;;;;5045312;28;20017;-61